Baker City Municipal Airport
KBKE : now visible

Airfield :











YOU CAN JOIN US ON...

 
LOGIN :

Register | Disclaimer

   EN    FR    IT 

 









Legend :    VFR   Marginal VFR   IFR   Intensive IFR   Very Intensive IFR
Visi :
Ceiling :
>= 8 km
>= 3000ft
5 to 8 km
1000 to 3000 ft
1500m to 5 km
500 to 1000 ft
800 to 1500m
200 to 500 ft
< 800m
< 200 ft
Symbols :   Thunderstorms  Fog  Heavy snow  Heavy precipitations  Wind > 20 kt






- Airport Elevation : 3373 ft


KBKE - Baker City Municipal

CURRENT METAR :
  • 020653Z AUTO 11011KT 10SM SCT070 OVC090 03/M03 A2938 RMK AO2 SLP957 T00281028

EXPIRED METARs :
  • 020553Z AUTO 11007KT 10SM BKN120 02/M05 A2940 RMK AO2 SLP964 60002 T00221050 10061 20011 58024
  • 020453Z AUTO 08010KT 10SM CLR 01/M05 A2943 RMK AO2 SLP978 T00111050
  • 012053Z AUTO 15019G31KT 10SM BKN060 BKN075 06/M02 A2957 RMK AO2 PK WND 17031/2049 SLP026 60000 T00561017 58021
  • 020353Z AUTO 07009KT 10SM FEW110 02/M04 A2946 RMK AO2 SLP987 T00171044
  • 020253Z AUTO 19006KT 10SM FEW110 03/M04 A2948 RMK AO2 SLP997 60002 T00281044 58009

TAF KBKE
Valid from the 02 at 06:00 until the 03 at 06:00 UTC


020538Z 0206/0306 09011KT P6SM VCSH BKN080
FM020800 15015G25KT 5SM -SHSN BR OVC025
TEMPO 0211/0213 1SM -SN BR OVC030
FM021600 24015G25KT P6SM OVC100
FM021900 26020G30KT P6SM VCSH BKN050 OVC100
FM030000 VRB06KT P6SM BKN060 OVC120
KZLC FIR / North America



MET'MAP, your aeronautical weather chart ! - Copyright ORBIFLY December 2007 - Disclaimer

ORBIFLY MET'MAP TEAM :

Programming & Development : Alexandra Zaïnal
Original concept : Baudouin d'Aumeries
Technical & hardware support : Manuel Goepfert
Assistance : Marc-Olivier Méhu




SOURCES & CREDITS :

   NOAA       Earth
Advisory